sensor_id;sensor_type;location;lat;lon;timestamp;pressure;altitude;pressure_sealevel;temperature;humidity
8653;BME280;4364;52.426;9.424;2024-03-23T00:55:43;100387.75;;;6.95;100.00
8653;BME280;4364;52.426;9.424;2024-03-23T00:58:09;100380.19;;;6.97;100.00
8653;BME280;4364;52.426;9.424;2024-03-23T01:00:34;100377.72;;;6.96;100.00
8653;BME280;4364;52.426;9.424;2024-03-23T01:03:01;100367.50;;;7.03;100.00
8653;BME280;4364;52.426;9.424;2024-03-23T01:05:27;100365.88;;;7.02;100.00
8653;BME280;4364;52.426;9.424;2024-03-23T01:07:53;100367.19;;;6.99;100.00
8653;BME280;4364;52.426;9.424;2024-03-23T01:10:18;100362.06;;;6.98;100.00
8653;BME280;4364;52.426;9.424;2024-03-23T01:12:44;100355.88;;;7.02;100.00
8653;BME280;4364;52.426;9.424;2024-03-23T01:15:09;100363.38;;;6.90;100.00
8653;BME280;4364;52.426;9.424;2024-03-23T01:17:35;100351.50;;;6.96;100.00
8653;BME280;4364;52.426;9.424;2024-03-23T01:20:01;100355.81;;;6.92;100.00
8653;BME280;4364;52.426;9.424;2024-03-23T01:22:27;100346.63;;;6.93;100.00
8653;BME280;4364;52.426;9.424;2024-03-23T01:24:53;100350.41;;;6.92;100.00
8653;BME280;4364;52.426;9.424;2024-03-23T01:27:18;100344.50;;;6.95;100.00
8653;BME280;4364;52.426;9.424;2024-03-23T01:29:44;100331.78;;;6.96;100.00
8653;BME280;4364;52.426;9.424;2024-03-23T01:32:10;100336.13;;;6.97;100.00
8653;BME280;4364;52.426;9.424;2024-03-23T01:34:35;100342.06;;;6.99;100.00
8653;BME280;4364;52.426;9.424;2024-03-23T01:37:01;100323.94;;;6.99;100.00
8653;BME280;4364;52.426;9.424;2024-03-23T01:39:27;100331.53;;;6.97;100.00
8653;BME280;4364;52.426;9.424;2024-03-23T01:41:52;100318.25;;;6.96;100.00
8653;BME280;4364;52.426;9.424;2024-03-23T01:44:18;100310.97;;;7.01;100.00
8653;BME280;4364;52.426;9.424;2024-03-23T01:46:44;100302.88;;;7.01;100.00
8653;BME280;4364;52.426;9.424;2024-03-23T01:49:10;100304.53;;;7.08;100.00
8653;BME280;4364;52.426;9.424;2024-03-23T01:51:36;100306.19;;;7.14;100.00
8653;BME280;4364;52.426;9.424;2024-03-23T01:54:03;100302.69;;;7.18;100.00
8653;BME280;4364;52.426;9.424;2024-03-23T01:56:33;100305.41;;;7.18;100.00
8653;BME280;4364;52.426;9.424;2024-03-23T01:59:01;100296.69;;;7.11;100.00
8653;BME280;4364;52.426;9.424;2024-03-23T02:01:27;100293.16;;;7.05;100.00
8653;BME280;4364;52.426;9.424;2024-03-23T02:03:52;100281.81;;;7.03;100.00
8653;BME280;4364;52.426;9.424;2024-03-23T02:06:18;100290.72;;;6.99;100.00
8653;BME280;4364;52.426;9.424;2024-03-23T02:08:44;100288.00;;;6.99;100.00
8653;BME280;4364;52.426;9.424;2024-03-23T02:11:09;100283.41;;;7.04;100.00
8653;BME280;4364;52.426;9.424;2024-03-23T02:13:35;100280.19;;;7.08;100.00
8653;BME280;4364;52.426;9.424;2024-03-23T02:16:04;100276.44;;;7.09;100.00
8653;BME280;4364;52.426;9.424;2024-03-23T02:18:30;100263.44;;;7.05;100.00
8653;BME280;4364;52.426;9.424;2024-03-23T02:20:56;100267.47;;;7.08;100.00
8653;BME280;4364;52.426;9.424;2024-03-23T02:23:22;100270.44;;;7.01;100.00
8653;BME280;4364;52.426;9.424;2024-03-23T02:25:47;100264.75;;;6.98;100.00
8653;BME280;4364;52.426;9.424;2024-03-23T02:28:13;100255.00;;;6.92;100.00
8653;BME280;4364;52.426;9.424;2024-03-23T02:30:38;100259.78;;;6.79;100.00
8653;BME280;4364;52.426;9.424;2024-03-23T02:33:04;100256.78;;;6.76;100.00
8653;BME280;4364;52.426;9.424;2024-03-23T02:35:30;100256.22;;;6.68;100.00
8653;BME280;4364;52.426;9.424;2024-03-23T02:37:56;100251.38;;;6.71;100.00
8653;BME280;4364;52.426;9.424;2024-03-23T02:40:23;100249.22;;;6.73;100.00
8653;BME280;4364;52.426;9.424;2024-03-23T02:42:49;100243.28;;;6.76;100.00
8653;BME280;4364;52.426;9.424;2024-03-23T02:45:14;100273.28;;;6.74;100.00
8653;BME280;4364;52.426;9.424;2024-03-23T02:47:40;100254.69;;;6.88;100.00
8653;BME280;4364;52.426;9.424;2024-03-23T02:50:06;100246.50;;;6.73;100.00
8653;BME280;4364;52.426;9.424;2024-03-23T02:52:32;100236.78;;;6.72;100.00
8653;BME280;4364;52.426;9.424;2024-03-23T02:54:58;100238.91;;;6.64;100.00
8653;BME280;4364;52.426;9.424;2024-03-23T02:57:24;100242.72;;;6.68;100.00
8653;BME280;4364;52.426;9.424;2024-03-23T02:59:49;100242.13;;;6.66;100.00
8653;BME280;4364;52.426;9.424;2024-03-23T03:02:15;100252.38;;;6.59;100.00
8653;BME280;4364;52.426;9.424;2024-03-23T03:04:41;100232.38;;;6.55;100.00
8653;BME280;4364;52.426;9.424;2024-03-23T03:07:07;100230.22;;;6.57;100.00
8653;BME280;4364;52.426;9.424;2024-03-23T03:09:32;100223.19;;;6.56;100.00
8653;BME280;4364;52.426;9.424;2024-03-23T03:12:03;100212.94;;;6.58;100.00
8653;BME280;4364;52.426;9.424;2024-03-23T03:14:29;100216.44;;;6.54;100.00
8653;BME280;4364;52.426;9.424;2024-03-23T03:16:55;100221.84;;;6.54;100.00
8653;BME280;4364;52.426;9.424;2024-03-23T03:19:21;100210.25;;;6.58;100.00
8653;BME280;4364;52.426;9.424;2024-03-23T03:21:47;100218.59;;;6.57;100.00
8653;BME280;4364;52.426;9.424;2024-03-23T03:24:13;100223.19;;;6.56;100.00
8653;BME280;4364;52.426;9.424;2024-03-23T03:26:39;100221.00;;;6.53;100.00
8653;BME280;4364;52.426;9.424;2024-03-23T03:29:04;100214.25;;;6.51;100.00
8653;BME280;4364;52.426;9.424;2024-03-23T03:31:30;100207.19;;;6.49;100.00
8653;BME280;4364;52.426;9.424;2024-03-23T03:33:56;100208.28;;;6.48;100.00
8653;BME280;4364;52.426;9.424;2024-03-23T03:36:22;100204.22;;;6.46;100.00
8653;BME280;4364;52.426;9.424;2024-03-23T03:38:48;100212.31;;;6.46;100.00
8653;BME280;4364;52.426;9.424;2024-03-23T03:41:13;100215.31;;;6.49;100.00
8653;BME280;4364;52.426;9.424;2024-03-23T03:43:39;100210.97;;;6.43;100.00
8653;BME280;4364;52.426;9.424;2024-03-23T03:46:05;100221.22;;;6.46;100.00
8653;BME280;4364;52.426;9.424;2024-03-23T03:48:30;100207.16;;;6.39;100.00
8653;BME280;4364;52.426;9.424;2024-03-23T03:50:56;100213.41;;;6.45;100.00
8653;BME280;4364;52.426;9.424;2024-03-23T03:53:21;100212.84;;;6.43;100.00
8653;BME280;4364;52.426;9.424;2024-03-23T03:55:47;100210.09;;;6.38;100.00
8653;BME280;4364;52.426;9.424;2024-03-23T03:58:13;100211.50;;;6.45;100.00
8653;BME280;4364;52.426;9.424;2024-03-23T04:00:38;100209.34;;;6.42;100.00
8653;BME280;4364;52.426;9.424;2024-03-23T04:03:04;100196.59;;;6.38;100.00
8653;BME280;4364;52.426;9.424;2024-03-23T04:05:30;100189.34;;;6.38;100.00
8653;BME280;4364;52.426;9.424;2024-03-23T04:07:55;100191.75;;;6.40;100.00
8653;BME280;4364;52.426;9.424;2024-03-23T04:10:21;100176.09;;;6.37;100.00
8653;BME280;4364;52.426;9.424;2024-03-23T04:12:47;100183.97;;;6.43;100.00
8653;BME280;4364;52.426;9.424;2024-03-23T04:15:13;100186.13;;;6.46;100.00
8653;BME280;4364;52.426;9.424;2024-03-23T04:17:39;100185.06;;;6.47;100.00
8653;BME280;4364;52.426;9.424;2024-03-23T04:20:08;100185.31;;;6.46;100.00
8653;BME280;4364;52.426;9.424;2024-03-23T04:22:37;100181.78;;;6.40;100.00
8653;BME280;4364;52.426;9.424;2024-03-23T04:25:03;100192.03;;;6.38;100.00
8653;BME280;4364;52.426;9.424;2024-03-23T04:27:32;100182.81;;;6.34;100.00
8653;BME280;4364;52.426;9.424;2024-03-23T04:29:59;100177.41;;;6.34;100.00
8653;BME280;4364;52.426;9.424;2024-03-23T04:32:26;100187.97;;;6.36;100.00
8653;BME280;4364;52.426;9.424;2024-03-23T04:34:53;100182.28;;;6.32;100.00
8653;BME280;4364;52.426;9.424;2024-03-23T04:37:18;100185.00;;;6.37;100.00
8653;BME280;4364;52.426;9.424;2024-03-23T04:39:45;100187.94;;;6.30;100.00
8653;BME280;4364;52.426;9.424;2024-03-23T04:42:10;100203.59;;;6.28;100.00
8653;BME280;4364;52.426;9.424;2024-03-23T04:44:37;100197.06;;;6.24;100.00
8653;BME280;4364;52.426;9.424;2024-03-23T04:47:03;100190.56;;;6.20;100.00
8653;BME280;4364;52.426;9.424;2024-03-23T04:49:29;100196.78;;;6.21;100.00
8653;BME280;4364;52.426;9.424;2024-03-23T04:51:55;100188.97;;;6.24;100.00
8653;BME280;4364;52.426;9.424;2024-03-23T04:54:20;100179.25;;;6.23;100.00
8653;BME280;4364;52.426;9.424;2024-03-23T04:56:48;100179.56;;;6.32;100.00
8653;BME280;4364;52.426;9.424;2024-03-23T04:59:14;100180.34;;;6.27;100.00
8653;BME280;4364;52.426;9.424;2024-03-23T05:01:39;100170.34;;;6.28;100.00
8653;BME280;4364;52.426;9.424;2024-03-23T05:04:08;100160.19;;;6.45;100.00
8653;BME280;4364;52.426;9.424;2024-03-23T05:06:34;100149.09;;;6.37;100.00
8653;BME280;4364;52.426;9.424;2024-03-23T05:09:01;100144.72;;;6.30;100.00
8653;BME280;4364;52.426;9.424;2024-03-23T05:11:33;100140.38;;;6.24;100.00
8653;BME280;4364;52.426;9.424;2024-03-23T05:13:59;100136.84;;;6.24;100.00
8653;BME280;4364;52.426;9.424;2024-03-23T05:16:26;100132.50;;;6.18;100.00
8653;BME280;4364;52.426;9.424;2024-03-23T05:18:52;100131.13;;;6.10;100.00
8653;BME280;4364;52.426;9.424;2024-03-23T05:21:17;100133.28;;;6.13;100.00
8653;BME280;4364;52.426;9.424;2024-03-23T05:23:43;100138.72;;;6.18;100.00
8653;BME280;4364;52.426;9.424;2024-03-23T05:26:09;100139.03;;;6.27;100.00
8653;BME280;4364;52.426;9.424;2024-03-23T05:28:35;100144.38;;;6.17;100.00
8653;BME280;4364;52.426;9.424;2024-03-23T05:31:01;100143.53;;;6.11;100.00
8653;BME280;4364;52.426;9.424;2024-03-23T05:33:27;100138.66;;;6.13;100.00
8653;BME280;4364;52.426;9.424;2024-03-23T05:35:57;100145.41;;;6.10;100.00
8653;BME280;4364;52.426;9.424;2024-03-23T05:38:23;100129.75;;;6.07;100.00
8653;BME280;4364;52.426;9.424;2024-03-23T05:40:56;100137.03;;;6.07;100.00
8653;BME280;4364;52.426;9.424;2024-03-23T05:43:22;100131.63;;;6.07;100.00
8653;BME280;4364;52.426;9.424;2024-03-23T05:45:53;100127.28;;;6.06;100.00
8653;BME280;4364;52.426;9.424;2024-03-23T05:48:19;100127.84;;;6.08;100.00
8653;BME280;4364;52.426;9.424;2024-03-23T05:50:44;100132.50;;;6.18;100.00
8653;BME280;4364;52.426;9.424;2024-03-23T05:53:10;100124.09;;;6.14;100.00
8653;BME280;4364;52.426;9.424;2024-03-23T05:55:36;100129.28;;;6.21;100.00
8653;BME280;4364;52.426;9.424;2024-03-23T05:58:02;100128.75;;;6.24;100.00
8653;BME280;4364;52.426;9.424;2024-03-23T06:00:28;100139.03;;;6.27;100.00
8653;BME280;4364;52.426;9.424;2024-03-23T06:02:53;100133.09;;;6.25;100.00
8653;BME280;4364;52.426;9.424;2024-03-23T06:05:19;100134.13;;;6.19;100.00
8653;BME280;4364;52.426;9.424;2024-03-23T06:07:44;100139.28;;;6.20;100.00
8653;BME280;4364;52.426;9.424;2024-03-23T06:10:10;100142.50;;;6.17;100.00
8653;BME280;4364;52.426;9.424;2024-03-23T06:12:35;100132.72;;;6.11;100.00
8653;BME280;4364;52.426;9.424;2024-03-23T06:15:01;100131.16;;;6.15;100.00
8653;BME280;4364;52.426;9.424;2024-03-23T06:17:27;100131.19;;;6.25;100.00
8653;BME280;4364;52.426;9.424;2024-03-23T06:19:53;100131.69;;;6.17;100.00
8653;BME280;4364;52.426;9.424;2024-03-23T06:22:18;100135.19;;;6.18;100.00
8653;BME280;4364;52.426;9.424;2024-03-23T06:24:44;100131.69;;;6.17;100.00
8653;BME280;4364;52.426;9.424;2024-03-23T06:27:10;100137.91;;;6.18;100.00
8653;BME280;4364;52.426;9.424;2024-03-23T06:29:36;100137.94;;;6.28;100.00
8653;BME280;4364;52.426;9.424;2024-03-23T06:32:02;100133.63;;;6.22;100.00
8653;BME280;4364;52.426;9.424;2024-03-23T06:34:29;100136.06;;;6.23;100.00
8653;BME280;4364;52.426;9.424;2024-03-23T06:36:55;100135.22;;;6.23;100.00
8653;BME280;4364;52.426;9.424;2024-03-23T06:39:21;100130.34;;;6.20;100.00
8653;BME280;4364;52.426;9.424;2024-03-23T06:41:52;100129.63;;;6.40;100.00
8653;BME280;4364;52.426;9.424;2024-03-23T06:44:18;100130.41;;;6.25;100.00
8653;BME280;4364;52.426;9.424;2024-03-23T06:46:45;100131.47;;;6.24;100.00
8653;BME280;4364;52.426;9.424;2024-03-23T06:49:11;100134.44;;;6.27;100.00
8653;BME280;4364;52.426;9.424;2024-03-23T06:51:36;100132.53;;;6.28;100.00
8653;BME280;4364;52.426;9.424;2024-03-23T06:54:04;100140.72;;;6.38;100.00
8653;BME280;4364;52.426;9.424;2024-03-23T06:56:30;100137.72;;;6.40;100.00
8653;BME280;4364;52.426;9.424;2024-03-23T06:58:57;100124.28;;;6.45;100.00
8653;BME280;4364;52.426;9.424;2024-03-23T07:01:22;100134.78;;;6.46;100.00
8653;BME280;4364;52.426;9.424;2024-03-23T07:03:48;100130.75;;;6.44;100.00
8653;BME280;4364;52.426;9.424;2024-03-23T07:06:14;100123.72;;;6.43;100.00
8653;BME280;4364;52.426;9.424;2024-03-23T07:08:39;100116.47;;;6.54;100.00
8653;BME280;4364;52.426;9.424;2024-03-23T07:11:05;100117.25;;;6.44;100.00
8653;BME280;4364;52.426;9.424;2024-03-23T07:13:31;100121.28;;;6.41;100.00
8653;BME280;4364;52.426;9.424;2024-03-23T07:15:56;100114.31;;;6.51;100.00
8653;BME280;4364;52.426;9.424;2024-03-23T07:18:23;100115.34;;;6.44;100.00
8653;BME280;4364;52.426;9.424;2024-03-23T07:20:53;100120.50;;;6.46;100.00
8653;BME280;4364;52.426;9.424;2024-03-23T07:23:20;100126.41;;;6.43;100.00
8653;BME280;4364;52.426;9.424;2024-03-23T07:25:56;100135.94;;;6.56;100.00
8653;BME280;4364;52.426;9.424;2024-03-23T07:28:23;100143.50;;;6.54;100.00
8653;BME280;4364;52.426;9.424;2024-03-23T07:31:01;100140.53;;;6.55;100.00
8653;BME280;4364;52.426;9.424;2024-03-23T07:33:28;100145.41;;;6.58;100.00
8653;BME280;4364;52.426;9.424;2024-03-23T07:35:54;100147.25;;;6.53;100.00
8653;BME280;4364;52.426;9.424;2024-03-23T07:38:19;100149.16;;;6.52;100.00
8653;BME280;4364;52.426;9.424;2024-03-23T07:40:45;100156.69;;;6.45;100.00
8653;BME280;4364;52.426;9.424;2024-03-23T07:43:10;100153.41;;;6.43;100.00
8653;BME280;4364;52.426;9.424;2024-03-23T07:45:36;100156.38;;;6.41;100.00
8653;BME280;4364;52.426;9.424;2024-03-23T07:48:04;100159.97;;;6.52;100.00
8653;BME280;4364;52.426;9.424;2024-03-23T07:50:29;100152.88;;;6.41;100.00
8653;BME280;4364;52.426;9.424;2024-03-23T07:52:55;100147.75;;;6.44;100.00
8653;BME280;4364;52.426;9.424;2024-03-23T07:55:21;100141.06;;;6.57;100.00
8653;BME280;4364;52.426;9.424;2024-03-23T07:57:47;100130.78;;;6.54;100.00
8653;BME280;4364;52.426;9.424;2024-03-23T08:00:13;100129.22;;;6.63;100.00
8653;BME280;4364;52.426;9.424;2024-03-23T08:02:39;100125.19;;;6.71;100.00
8653;BME280;4364;52.426;9.424;2024-03-23T08:05:04;100132.78;;;6.79;100.00
8653;BME280;4364;52.426;9.424;2024-03-23T08:07:31;100141.22;;;6.98;100.00
8653;BME280;4364;52.426;9.424;2024-03-23T08:09:56;100140.66;;;7.01;100.00
8653;BME280;4364;52.426;9.424;2024-03-23T08:12:24;100140.66;;;7.07;100.00
8653;BME280;4364;52.426;9.424;2024-03-23T08:14:50;100142.56;;;7.01;100.00
8653;BME280;4364;52.426;9.424;2024-03-23T08:17:16;100141.81;;;7.26;100.00
8653;BME280;4364;52.426;9.424;2024-03-23T08:19:43;100150.19;;;7.19;100.00
8653;BME280;4364;52.426;9.424;2024-03-23T08:22:08;100144.78;;;7.24;100.00
8653;BME280;4364;52.426;9.424;2024-03-23T08:24:34;100145.56;;;7.10;100.00
8653;BME280;4364;52.426;9.424;2024-03-23T08:27:00;100146.66;;;7.14;100.00
8653;BME280;4364;52.426;9.424;2024-03-23T08:29:27;100141.22;;;7.03;100.00
8653;BME280;4364;52.426;9.424;2024-03-23T08:31:53;100145.56;;;7.10;100.00
8653;BME280;4364;52.426;9.424;2024-03-23T08:34:18;100144.50;;;7.21;100.00
8653;BME280;4364;52.426;9.424;2024-03-23T08:36:44;100142.59;;;7.11;100.00
8653;BME280;4364;52.426;9.424;2024-03-23T08:39:10;100141.00;;;7.20;100.00
8653;BME280;4364;52.426;9.424;2024-03-23T08:41:35;100136.38;;;7.26;100.00
8653;BME280;4364;52.426;9.424;2024-03-23T08:44:01;100146.94;;;7.22;100.00
8653;BME280;4364;52.426;9.424;2024-03-23T08:46:26;100134.22;;;7.28;100.00
8653;BME280;4364;52.426;9.424;2024-03-23T08:48:53;100137.78;;;7.39;100.00
8653;BME280;4364;52.426;9.424;2024-03-23T08:51:18;100146.97;;;7.43;100.00
8653;BME280;4364;52.426;9.424;2024-03-23T08:53:45;100142.91;;;7.35;100.00
8653;BME280;4364;52.426;9.424;2024-03-23T08:56:11;100137.75;;;7.34;100.00
8653;BME280;4364;52.426;9.424;2024-03-23T08:58:38;100145.34;;;7.42;100.00
8653;BME280;4364;52.426;9.424;2024-03-23T09:01:08;100142.91;;;7.51;100.00
8653;BME280;4364;52.426;9.424;2024-03-23T09:03:34;100134.00;;;7.50;100.00
8653;BME280;4364;52.426;9.424;2024-03-23T09:06:02;100131.56;;;7.44;100.00
8653;BME280;4364;52.426;9.424;2024-03-23T09:08:27;100141.28;;;7.39;100.00
8653;BME280;4364;52.426;9.424;2024-03-23T09:10:54;100133.44;;;7.33;100.00
8653;BME280;4364;52.426;9.424;2024-03-23T09:13:20;100141.81;;;7.26;98.62
8653;BME280;4364;52.426;9.424;2024-03-23T09:15:47;100138.84;;;7.33;98.33
8653;BME280;4364;52.426;9.424;2024-03-23T09:18:15;100130.47;;;7.34;98.78
8653;BME280;4364;52.426;9.424;2024-03-23T09:20:41;100135.84;;;7.29;99.27
8653;BME280;4364;52.426;9.424;2024-03-23T09:23:06;100132.63;;;7.42;98.73
8653;BME280;4364;52.426;9.424;2024-03-23T09:25:32;100141.28;;;7.55;94.77
8653;BME280;4364;52.426;9.424;2024-03-23T09:28:02;100128.03;;;7.74;90.26
8653;BME280;4364;52.426;9.424;2024-03-23T09:30:28;100129.91;;;7.89;88.07
8653;BME280;4364;52.426;9.424;2024-03-23T09:32:53;100129.09;;;7.78;84.53
8653;BME280;4364;52.426;9.424;2024-03-23T09:35:19;100127.75;;;7.91;82.89
8653;BME280;4364;52.426;9.424;2024-03-23T09:37:45;100134.22;;;8.10;84.89
8653;BME280;4364;52.426;9.424;2024-03-23T09:40:11;100135.25;;;8.20;81.80
8653;BME280;4364;52.426;9.424;2024-03-23T09:42:37;100139.34;;;8.22;82.16
8653;BME280;4364;52.426;9.424;2024-03-23T09:45:06;100130.66;;;8.15;81.72
8653;BME280;4364;52.426;9.424;2024-03-23T09:47:36;100133.09;;;8.32;84.11
8653;BME280;4364;52.426;9.424;2024-03-23T09:50:02;100133.63;;;8.29;81.64
8653;BME280;4364;52.426;9.424;2024-03-23T09:52:30;100131.75;;;8.24;77.99
8653;BME280;4364;52.426;9.424;2024-03-23T09:54:55;100140.63;;;8.35;77.54
8653;BME280;4364;52.426;9.424;2024-03-23T09:57:23;100133.03;;;8.52;77.71
8653;BME280;4364;52.426;9.424;2024-03-23T09:59:49;100134.91;;;8.62;75.52
8653;BME280;4364;52.426;9.424;2024-03-23T10:02:15;100130.47;;;8.77;74.26
8653;BME280;4364;52.426;9.424;2024-03-23T10:04:43;100118.78;;;8.86;73.96
8653;BME280;4364;52.426;9.424;2024-03-23T10:07:13;100119.34;;;8.78;73.79
8653;BME280;4364;52.426;9.424;2024-03-23T10:09:39;100120.06;;;8.44;74.68
8653;BME280;4364;52.426;9.424;2024-03-23T10:12:15;100117.25;;;8.65;75.31
8653;BME280;4364;52.426;9.424;2024-03-23T10:14:41;100116.88;;;8.87;75.48
8653;BME280;4364;52.426;9.424;2024-03-23T10:17:21;100133.53;;;8.60;74.73
8653;BME280;4364;52.426;9.424;2024-03-23T10:19:52;100122.47;;;8.51;76.38
8653;BME280;4364;52.426;9.424;2024-03-23T10:22:19;100148.22;;;8.33;77.74
8653;BME280;4364;52.426;9.424;2024-03-23T10:24:45;100194.06;;;7.78;82.04
8653;BME280;4364;52.426;9.424;2024-03-23T10:27:21;100191.13;;;6.70;92.50
8653;BME280;4364;52.426;9.424;2024-03-23T10:29:48;100214.59;;;6.22;97.41
8653;BME280;4364;52.426;9.424;2024-03-23T10:32:18;100207.25;;;6.12;100.00
8653;BME280;4364;52.426;9.424;2024-03-23T10:34:45;100202.63;;;6.07;100.00
8653;BME280;4364;52.426;9.424;2024-03-23T10:37:11;100205.31;;;5.75;100.00
8653;BME280;4364;52.426;9.424;2024-03-23T10:39:38;100184.53;;;5.43;100.00
8653;BME280;4364;52.426;9.424;2024-03-23T10:42:09;100180.59;;;5.56;100.00
8653;BME280;4364;52.426;9.424;2024-03-23T10:44:38;100184.19;;;5.67;100.00
8653;BME280;4364;52.426;9.424;2024-03-23T10:47:05;100179.66;;;5.72;100.00
8653;BME280;4364;52.426;9.424;2024-03-23T10:49:34;100180.59;;;5.88;100.00
8653;BME280;4364;52.426;9.424;2024-03-23T10:52:04;100167.59;;;5.80;100.00
8653;BME280;4364;52.426;9.424;2024-03-23T10:54:31;100172.97;;;5.80;100.00
8653;BME280;4364;52.426;9.424;2024-03-23T10:57:02;100165.47;;;5.87;100.00
8653;BME280;4364;52.426;9.424;2024-03-23T10:59:29;100159.41;;;5.70;100.00
8653;BME280;4364;52.426;9.424;2024-03-23T11:01:58;100154.56;;;5.72;100.00
8653;BME280;4364;52.426;9.424;2024-03-23T11:04:34;100158.06;;;5.72;100.00
8653;BME280;4364;52.426;9.424;2024-03-23T11:07:01;100153.56;;;5.83;100.00
8653;BME280;4364;52.426;9.424;2024-03-23T11:09:40;100143.34;;;5.85;100.00
8653;BME280;4364;52.426;9.424;2024-03-23T11:14:48;100136.69;;;6.46;100.00
8653;BME280;4364;52.426;9.424;2024-03-23T11:17:18;100136.84;;;6.82;99.77
8653;BME280;4364;52.426;9.424;2024-03-23T11:19:44;100137.19;;;7.21;100.00
8653;BME280;4364;52.426;9.424;2024-03-23T11:22:10;100146.41;;;7.46;100.00
8653;BME280;4364;52.426;9.424;2024-03-23T11:24:35;100187.25;;;7.24;100.00
8653;BME280;4364;52.426;9.424;2024-03-23T11:27:01;100203.13;;;5.72;99.62
8653;BME280;4364;52.426;9.424;2024-03-23T11:29:29;100186.13;;;4.90;100.00
8653;BME280;4364;52.426;9.424;2024-03-23T11:31:56;100175.84;;;4.87;100.00
8653;BME280;4364;52.426;9.424;2024-03-23T11:34:22;100163.81;;;4.72;100.00
8653;BME280;4364;52.426;9.424;2024-03-23T11:36:48;100169.06;;;5.06;100.00
8653;BME280;4364;52.426;9.424;2024-03-23T11:39:18;100157.03;;;5.46;100.00
8653;BME280;4364;52.426;9.424;2024-03-23T11:41:51;100157.16;;;5.94;100.00
8653;BME280;4364;52.426;9.424;2024-03-23T11:44:21;100139.22;;;6.10;100.00
8653;BME280;4364;52.426;9.424;2024-03-23T11:46:50;100144.31;;;6.59;100.00
8653;BME280;4364;52.426;9.424;2024-03-23T11:49:24;100150.91;;;6.89;100.00
8653;BME280;4364;52.426;9.424;2024-03-23T11:51:52;100147.44;;;7.04;100.00
8653;BME280;4364;52.426;9.424;2024-03-23T11:54:26;100137.72;;;7.08;100.00
8653;BME280;4364;52.426;9.424;2024-03-23T11:56:58;100139.09;;;7.36;100.00
8653;BME280;4364;52.426;9.424;2024-03-23T11:59:36;100135.59;;;7.36;100.00
8653;BME280;4364;52.426;9.424;2024-03-23T12:02:11;100129.91;;;7.37;98.04
8653;BME280;4364;52.426;9.424;2024-03-23T12:04:39;100135.31;;;7.32;96.02
8653;BME280;4364;52.426;9.424;2024-03-23T12:09:37;100124.25;;;7.34;97.71
8653;BME280;4364;52.426;9.424;2024-03-23T12:12:11;100124.50;;;7.68;95.79
8653;BME280;4364;52.426;9.424;2024-03-23T12:14:38;100124.22;;;8.01;93.97
8653;BME280;4364;52.426;9.424;2024-03-23T12:17:14;100137.47;;;8.12;93.02
8653;BME280;4364;52.426;9.424;2024-03-23T12:19:42;100134.22;;;8.05;91.28
8653;BME280;4364;52.426;9.424;2024-03-23T12:22:08;100148.31;;;7.97;91.89
8653;BME280;4364;52.426;9.424;2024-03-23T12:24:34;100132.63;;;7.53;87.58
8653;BME280;4364;52.426;9.424;2024-03-23T12:27:04;100135.88;;;7.45;88.58
8653;BME280;4364;52.426;9.424;2024-03-23T12:29:34;100126.09;;;7.18;88.81
8653;BME280;4364;52.426;9.424;2024-03-23T12:32:02;100133.41;;;7.17;89.41
8653;BME280;4364;52.426;9.424;2024-03-23T12:34:28;100118.22;;;6.91;86.13
8653;BME280;4364;52.426;9.424;2024-03-23T12:36:56;100127.13;;;6.91;88.54
8653;BME280;4364;52.426;9.424;2024-03-23T12:39:22;100121.97;;;6.79;83.82
8653;BME280;4364;52.426;9.424;2024-03-23T12:41:48;100118.19;;;6.80;79.49
8653;BME280;4364;52.426;9.424;2024-03-23T12:44:14;100112.59;;;7.23;77.93
8653;BME280;4364;52.426;9.424;2024-03-23T12:46:41;100118.28;;;7.57;76.89
8653;BME280;4364;52.426;9.424;2024-03-23T12:49:08;100119.91;;;7.84;78.22
8653;BME280;4364;52.426;9.424;2024-03-23T12:51:33;100110.97;;;7.94;77.95
8653;BME280;4364;52.426;9.424;2024-03-23T12:53:59;100109.81;;;8.21;80.59
8653;BME280;4364;52.426;9.424;2024-03-23T12:56:25;100111.91;;;8.39;79.41
8653;BME280;4364;52.426;9.424;2024-03-23T12:58:52;100113.00;;;8.43;78.79
8653;BME280;4364;52.426;9.424;2024-03-23T13:01:21;100105.44;;;8.30;77.08
8653;BME280;4364;52.426;9.424;2024-03-23T13:03:47;100108.13;;;8.35;79.01
8653;BME280;4364;52.426;9.424;2024-03-23T13:06:13;100109.72;;;8.51;78.42
8653;BME280;4364;52.426;9.424;2024-03-23T13:08:39;100102.44;;;8.37;77.80
8653;BME280;4364;52.426;9.424;2024-03-23T13:11:07;100094.53;;;8.61;76.98
8653;BME280;4364;52.426;9.424;2024-03-23T13:13:34;100088.25;;;8.70;77.39
8653;BME280;4364;52.426;9.424;2024-03-23T13:16:00;100099.53;;;8.88;76.01
8653;BME280;4364;52.426;9.424;2024-03-23T13:18:26;100093.81;;;8.89;73.99
8653;BME280;4364;52.426;9.424;2024-03-23T13:20:51;100095.38;;;9.01;73.21
8653;BME280;4364;52.426;9.424;2024-03-23T13:23:17;100096.63;;;9.19;73.78
8653;BME280;4364;52.426;9.424;2024-03-23T13:25:53;100089.13;;;9.00;71.95
8653;BME280;4364;52.426;9.424;2024-03-23T13:28:20;100091.53;;;9.07;71.19
8653;BME280;4364;52.426;9.424;2024-03-23T13:30:53;100083.44;;;9.02;69.79
8653;BME280;4364;52.426;9.424;2024-03-23T13:33:19;100067.03;;;9.22;69.99
8653;BME280;4364;52.426;9.424;2024-03-23T13:35:52;100076.69;;;9.34;69.07
8653;BME280;4364;52.426;9.424;2024-03-23T13:38:17;100070.59;;;9.47;69.88
8653;BME280;4364;52.426;9.424;2024-03-23T13:40:59;100091.66;;;9.31;68.30
8653;BME280;4364;52.426;9.424;2024-03-23T13:43:26;100078.69;;;9.23;68.78
8653;BME280;4364;52.426;9.424;2024-03-23T13:45:58;100093.28;;;9.27;69.64
8653;BME280;4364;52.426;9.424;2024-03-23T13:48:26;100089.09;;;9.11;68.13
8653;BME280;4364;52.426;9.424;2024-03-23T13:51:04;100081.69;;;9.21;69.24
8653;BME280;4364;52.426;9.424;2024-03-23T13:53:31;100097.81;;;9.37;68.26
8653;BME280;4364;52.426;9.424;2024-03-23T13:55:57;100100.34;;;9.28;66.82
8653;BME280;4364;52.426;9.424;2024-03-23T13:58:23;100103.00;;;8.99;66.94
8653;BME280;4364;52.426;9.424;2024-03-23T14:00:52;100107.13;;;8.86;65.62
8653;BME280;4364;52.426;9.424;2024-03-23T14:03:18;100122.59;;;8.80;66.61
8653;BME280;4364;52.426;9.424;2024-03-23T14:05:46;100108.94;;;8.41;66.60
8653;BME280;4364;52.426;9.424;2024-03-23T14:08:15;100117.94;;;8.21;67.12
8653;BME280;4364;52.426;9.424;2024-03-23T14:10:41;100120.41;;;8.02;67.75
8653;BME280;4364;52.426;9.424;2024-03-23T14:13:07;100133.16;;;7.81;67.23